sensor_id;sensor_type;location;lat;lon;timestamp;noise_LAeq;noise_LA_min;noise_LA_max;noise_LA01;noise_LA95
41518;Laerm;27249;48.094;-1.690;2023-05-10T00:01:46;47.49;41.68;60.60;;
41518;Laerm;27249;48.094;-1.690;2023-05-10T00:04:11;48.91;41.14;61.33;;
41518;Laerm;27249;48.094;-1.690;2023-05-10T00:06:36;47.69;40.23;65.83;;
41518;Laerm;27249;48.094;-1.690;2023-05-10T00:09:02;45.01;41.06;58.98;;
41518;Laerm;27249;48.094;-1.690;2023-05-10T00:11:28;44.75;42.09;59.55;;
41518;Laerm;27249;48.094;-1.690;2023-05-10T00:13:53;48.47;41.30;62.43;;
41518;Laerm;27249;48.094;-1.690;2023-05-10T00:16:18;48.35;40.89;67.80;;
41518;Laerm;27249;48.094;-1.690;2023-05-10T00:18:43;49.20;41.68;61.72;;
41518;Laerm;27249;48.094;-1.690;2023-05-10T00:21:08;44.97;40.80;62.80;;
41518;Laerm;27249;48.094;-1.690;2023-05-10T00:23:34;47.08;41.30;62.78;;
41518;Laerm;27249;48.094;-1.690;2023-05-10T00:25:59;48.53;41.38;60.83;;
41518;Laerm;27249;48.094;-1.690;2023-05-10T00:28:24;46.87;40.71;71.98;;
41518;Laerm;27249;48.094;-1.690;2023-05-10T00:30:49;48.42;41.53;68.63;;
41518;Laerm;27249;48.094;-1.690;2023-05-10T00:33:15;46.47;40.43;72.47;;
41518;Laerm;27249;48.094;-1.690;2023-05-10T00:35:40;47.15;40.98;58.40;;
41518;Laerm;27249;48.094;-1.690;2023-05-10T00:38:05;48.48;42.09;61.88;;
41518;Laerm;27249;48.094;-1.690;2023-05-10T00:40:30;46.06;41.46;59.56;;
41518;Laerm;27249;48.094;-1.690;2023-05-10T00:42:56;44.35;41.38;55.45;;
41518;Laerm;27249;48.094;-1.690;2023-05-10T00:45:22;49.32;40.13;66.77;;
41518;Laerm;27249;48.094;-1.690;2023-05-10T00:47:47;44.83;40.96;63.26;;
41518;Laerm;27249;48.094;-1.690;2023-05-10T00:50:13;46.56;41.41;64.09;;
41518;Laerm;27249;48.094;-1.690;2023-05-10T00:52:39;45.66;40.62;55.46;;
41518;Laerm;27249;48.094;-1.690;2023-05-10T00:55:04;49.97;40.62;64.64;;
41518;Laerm;27249;48.094;-1.690;2023-05-10T00:57:30;47.12;41.22;63.32;;
41518;Laerm;27249;48.094;-1.690;2023-05-10T00:59:56;46.75;41.06;67.53;;
41518;Laerm;27249;48.094;-1.690;2023-05-10T01:02:21;49.52;41.06;59.86;;
41518;Laerm;27249;48.094;-1.690;2023-05-10T01:04:47;47.34;40.43;68.02;;
41518;Laerm;27249;48.094;-1.690;2023-05-10T01:07:12;45.11;40.13;63.56;;
41518;Laerm;27249;48.094;-1.690;2023-05-10T01:09:37;46.26;41.14;65.89;;
41518;Laerm;27249;48.094;-1.690;2023-05-10T01:12:04;44.74;42.22;58.47;;
41518;Laerm;27249;48.094;-1.690;2023-05-10T01:14:31;47.64;42.09;63.19;;
41518;Laerm;27249;48.094;-1.690;2023-05-10T01:16:57;45.68;40.33;62.18;;
41518;Laerm;27249;48.094;-1.690;2023-05-10T01:19:23;48.65;40.08;65.86;;
41518;Laerm;27249;48.094;-1.690;2023-05-10T01:37:46;46.70;41.14;65.16;;
41518;Laerm;27249;48.094;-1.690;2023-05-10T01:40:17;46.49;41.30;71.64;;
41518;Laerm;27249;48.094;-1.690;2023-05-10T01:42:50;47.21;42.53;60.80;;
41518;Laerm;27249;48.094;-1.690;2023-05-10T01:45:21;47.69;41.55;70.25;;
41518;Laerm;27249;48.094;-1.690;2023-05-10T01:47:52;49.02;41.46;70.68;;
41518;Laerm;27249;48.094;-1.690;2023-05-10T01:50:20;48.05;41.75;68.57;;
41518;Laerm;27249;48.094;-1.690;2023-05-10T01:52:49;48.65;41.46;62.40;;
41518;Laerm;27249;48.094;-1.690;2023-05-10T01:55:15;46.35;42.09;57.56;;
41518;Laerm;27249;48.094;-1.690;2023-05-10T01:57:42;45.64;41.89;62.55;;
41518;Laerm;27249;48.094;-1.690;2023-05-10T02:00:08;47.66;41.53;60.88;;
41518;Laerm;27249;48.094;-1.690;2023-05-10T02:02:37;51.43;41.68;62.38;;
41518;Laerm;27249;48.094;-1.690;2023-05-10T02:05:03;47.86;41.96;62.28;;
41518;Laerm;27249;48.094;-1.690;2023-05-10T02:07:29;44.92;41.46;62.89;;
41518;Laerm;27249;48.094;-1.690;2023-05-10T02:09:54;44.79;42.59;53.01;;
41518;Laerm;27249;48.094;-1.690;2023-05-10T02:12:20;44.64;40.43;57.69;;
41518;Laerm;27249;48.094;-1.690;2023-05-10T02:14:47;45.05;42.16;56.90;;
41518;Laerm;27249;48.094;-1.690;2023-05-10T02:17:12;48.52;42.93;59.94;;
41518;Laerm;27249;48.094;-1.690;2023-05-10T02:19:40;47.75;42.29;58.67;;
41518;Laerm;27249;48.094;-1.690;2023-05-10T02:22:06;46.62;41.75;59.57;;
41518;Laerm;27249;48.094;-1.690;2023-05-10T02:24:33;49.91;41.06;62.68;;
41518;Laerm;27249;48.094;-1.690;2023-05-10T02:26:59;47.95;42.59;60.88;;
41518;Laerm;27249;48.094;-1.690;2023-05-10T02:29:25;51.85;42.16;64.73;;
41518;Laerm;27249;48.094;-1.690;2023-05-10T02:31:52;52.37;43.14;67.22;;
41518;Laerm;27249;48.094;-1.690;2023-05-10T02:34:18;50.31;43.44;63.28;;
41518;Laerm;27249;48.094;-1.690;2023-05-10T02:36:44;46.40;42.79;55.17;;
41518;Laerm;27249;48.094;-1.690;2023-05-10T02:39:09;51.56;42.71;64.23;;
41518;Laerm;27249;48.094;-1.690;2023-05-10T02:41:37;49.13;42.22;66.49;;
41518;Laerm;27249;48.094;-1.690;2023-05-10T02:44:04;50.95;43.24;64.36;;
41518;Laerm;27249;48.094;-1.690;2023-05-10T02:46:30;50.84;43.55;60.09;;
41518;Laerm;27249;48.094;-1.690;2023-05-10T02:48:56;47.96;43.24;59.11;;
41518;Laerm;27249;48.094;-1.690;2023-05-10T02:51:22;52.91;43.14;63.62;;
41518;Laerm;27249;48.094;-1.690;2023-05-10T02:53:49;53.40;43.34;66.59;;
41518;Laerm;27249;48.094;-1.690;2023-05-10T02:56:31;46.85;43.29;58.33;;
41518;Laerm;27249;48.094;-1.690;2023-05-10T02:58:57;49.52;43.63;61.37;;
41518;Laerm;27249;48.094;-1.690;2023-05-10T03:01:23;50.29;43.89;62.91;;
41518;Laerm;27249;48.094;-1.690;2023-05-10T03:03:48;51.22;43.14;73.16;;
41518;Laerm;27249;48.094;-1.690;2023-05-10T03:06:13;53.44;42.59;82.42;;
41518;Laerm;27249;48.094;-1.690;2023-05-10T03:08:39;57.06;42.76;65.96;;
41518;Laerm;27249;48.094;-1.690;2023-05-10T03:16:24;50.76;43.34;61.33;;
41518;Laerm;27249;48.094;-1.690;2023-05-10T03:21:36;47.92;43.14;56.43;;
41518;Laerm;27249;48.094;-1.690;2023-05-10T03:24:05;49.53;43.76;62.13;;
41518;Laerm;27249;48.094;-1.690;2023-05-10T03:26:32;52.36;44.19;61.86;;
41518;Laerm;27249;48.094;-1.690;2023-05-10T03:28:57;50.83;43.49;63.32;;
41518;Laerm;27249;48.094;-1.690;2023-05-10T03:31:24;51.16;44.07;61.74;;
41518;Laerm;27249;48.094;-1.690;2023-05-10T03:33:49;52.54;44.27;66.10;;
41518;Laerm;27249;48.094;-1.690;2023-05-10T03:36:15;51.22;44.80;63.71;;
41518;Laerm;27249;48.094;-1.690;2023-05-10T03:38:40;51.67;44.83;63.77;;
41518;Laerm;27249;48.094;-1.690;2023-05-10T03:41:06;48.90;44.73;57.82;;
41518;Laerm;27249;48.094;-1.690;2023-05-10T03:43:31;53.39;44.43;62.50;;
41518;Laerm;27249;48.094;-1.690;2023-05-10T03:45:56;55.28;45.66;69.53;;
41518;Laerm;27249;48.094;-1.690;2023-05-10T03:48:21;53.12;45.83;65.61;;
41518;Laerm;27249;48.094;-1.690;2023-05-10T03:50:47;54.46;46.80;66.47;;
41518;Laerm;27249;48.094;-1.690;2023-05-10T03:53:14;54.45;46.77;68.58;;
41518;Laerm;27249;48.094;-1.690;2023-05-10T03:55:39;55.18;47.54;65.67;;
41518;Laerm;27249;48.094;-1.690;2023-05-10T03:58:04;54.28;46.35;63.89;;
41518;Laerm;27249;48.094;-1.690;2023-05-10T04:00:29;55.11;47.32;63.82;;
41518;Laerm;27249;48.094;-1.690;2023-05-10T04:02:55;55.60;47.06;67.72;;
41518;Laerm;27249;48.094;-1.690;2023-05-10T04:05:21;53.67;45.60;66.51;;
41518;Laerm;27249;48.094;-1.690;2023-05-10T04:07:46;53.58;45.33;64.13;;
41518;Laerm;27249;48.094;-1.690;2023-05-10T04:10:12;54.42;46.13;64.68;;
41518;Laerm;27249;48.094;-1.690;2023-05-10T04:12:37;54.56;46.65;62.94;;
41518;Laerm;27249;48.094;-1.690;2023-05-10T04:15:02;56.11;46.69;64.21;;
41518;Laerm;27249;48.094;-1.690;2023-05-10T04:17:28;55.64;47.36;65.00;;
41518;Laerm;27249;48.094;-1.690;2023-05-10T04:19:53;55.66;46.38;65.48;;
41518;Laerm;27249;48.094;-1.690;2023-05-10T04:22:19;52.87;45.39;67.84;;
41518;Laerm;27249;48.094;-1.690;2023-05-10T04:24:45;55.17;46.38;63.35;;
41518;Laerm;27249;48.094;-1.690;2023-05-10T04:27:10;50.16;45.63;59.18;;
41518;Laerm;27249;48.094;-1.690;2023-05-10T04:29:36;51.09;45.48;61.87;;
41518;Laerm;27249;48.094;-1.690;2023-05-10T04:32:01;55.38;46.75;69.95;;
41518;Laerm;27249;48.094;-1.690;2023-05-10T04:34:27;60.65;47.84;75.71;;
41518;Laerm;27249;48.094;-1.690;2023-05-10T04:36:52;54.74;47.32;63.61;;
41518;Laerm;27249;48.094;-1.690;2023-05-10T04:39:17;59.31;47.72;73.32;;
41518;Laerm;27249;48.094;-1.690;2023-05-10T04:41:43;54.02;47.30;60.84;;
41518;Laerm;27249;48.094;-1.690;2023-05-10T04:44:08;55.30;47.77;66.28;;
41518;Laerm;27249;48.094;-1.690;2023-05-10T04:46:33;54.40;46.69;69.18;;
41518;Laerm;27249;48.094;-1.690;2023-05-10T04:48:58;56.39;48.54;66.93;;
41518;Laerm;27249;48.094;-1.690;2023-05-10T04:51:24;55.85;47.70;62.92;;
41518;Laerm;27249;48.094;-1.690;2023-05-10T04:53:49;57.49;49.72;65.99;;
41518;Laerm;27249;48.094;-1.690;2023-05-10T04:56:14;56.54;47.54;67.62;;
41518;Laerm;27249;48.094;-1.690;2023-05-10T04:58:39;56.16;49.20;63.75;;
41518;Laerm;27249;48.094;-1.690;2023-05-10T05:01:05;55.47;48.98;62.65;;
41518;Laerm;27249;48.094;-1.690;2023-05-10T05:03:32;58.08;50.32;63.89;;
41518;Laerm;27249;48.094;-1.690;2023-05-10T05:05:57;55.45;50.09;61.74;;
41518;Laerm;27249;48.094;-1.690;2023-05-10T05:08:22;57.70;50.00;65.21;;
41518;Laerm;27249;48.094;-1.690;2023-05-10T05:10:48;56.75;48.63;78.87;;
41518;Laerm;27249;48.094;-1.690;2023-05-10T05:13:15;57.65;50.62;64.42;;
41518;Laerm;27249;48.094;-1.690;2023-05-10T05:15:40;58.13;49.88;67.80;;
41518;Laerm;27249;48.094;-1.690;2023-05-10T05:18:05;57.14;51.32;62.61;;
41518;Laerm;27249;48.094;-1.690;2023-05-10T05:20:34;57.51;50.35;64.96;;
41518;Laerm;27249;48.094;-1.690;2023-05-10T05:22:59;57.61;49.71;73.62;;
41518;Laerm;27249;48.094;-1.690;2023-05-10T05:25:25;57.19;50.51;67.14;;
41518;Laerm;27249;48.094;-1.690;2023-05-10T05:27:50;58.26;52.15;73.93;;
41518;Laerm;27249;48.094;-1.690;2023-05-10T05:30:15;60.50;51.65;73.92;;
41518;Laerm;27249;48.094;-1.690;2023-05-10T05:32:40;57.21;52.42;67.35;;
41518;Laerm;27249;48.094;-1.690;2023-05-10T05:35:06;57.32;49.85;63.36;;
41518;Laerm;27249;48.094;-1.690;2023-05-10T05:37:31;58.89;51.77;66.30;;
41518;Laerm;27249;48.094;-1.690;2023-05-10T05:39:57;59.04;54.43;66.99;;
41518;Laerm;27249;48.094;-1.690;2023-05-10T05:42:22;58.35;51.34;67.64;;
41518;Laerm;27249;48.094;-1.690;2023-05-10T05:44:47;57.28;51.49;66.61;;
41518;Laerm;27249;48.094;-1.690;2023-05-10T05:47:12;58.65;52.06;64.84;;
41518;Laerm;27249;48.094;-1.690;2023-05-10T05:49:38;58.49;53.55;65.18;;
41518;Laerm;27249;48.094;-1.690;2023-05-10T05:52:03;58.59;53.39;64.59;;
41518;Laerm;27249;48.094;-1.690;2023-05-10T05:54:29;57.95;51.23;63.23;;
41518;Laerm;27249;48.094;-1.690;2023-05-10T05:56:54;57.82;49.87;64.17;;
41518;Laerm;27249;48.094;-1.690;2023-05-10T05:59:20;58.95;52.81;68.32;;
41518;Laerm;27249;48.094;-1.690;2023-05-10T06:01:45;58.18;54.06;63.36;;
41518;Laerm;27249;48.094;-1.690;2023-05-10T06:04:11;58.62;52.64;63.54;;
41518;Laerm;27249;48.094;-1.690;2023-05-10T06:06:36;63.95;52.13;86.60;;
41518;Laerm;27249;48.094;-1.690;2023-05-10T06:09:01;58.34;52.38;64.15;;
41518;Laerm;27249;48.094;-1.690;2023-05-10T06:11:26;59.52;54.40;64.64;;
41518;Laerm;27249;48.094;-1.690;2023-05-10T06:13:52;59.80;52.08;72.91;;
41518;Laerm;27249;48.094;-1.690;2023-05-10T06:16:17;59.58;54.56;67.05;;
41518;Laerm;27249;48.094;-1.690;2023-05-10T06:18:42;59.17;52.33;64.85;;
41518;Laerm;27249;48.094;-1.690;2023-05-10T06:21:07;58.29;52.80;64.83;;
41518;Laerm;27249;48.094;-1.690;2023-05-10T06:23:33;58.92;52.71;64.09;;
41518;Laerm;27249;48.094;-1.690;2023-05-10T06:25:58;58.69;50.58;72.09;;
41518;Laerm;27249;48.094;-1.690;2023-05-10T06:28:34;59.28;53.77;64.67;;
41518;Laerm;27249;48.094;-1.690;2023-05-10T06:31:00;58.45;52.39;66.53;;
41518;Laerm;27249;48.094;-1.690;2023-05-10T06:33:25;59.40;54.04;66.96;;
41518;Laerm;27249;48.094;-1.690;2023-05-10T06:35:50;59.03;50.65;64.51;;
41518;Laerm;27249;48.094;-1.690;2023-05-10T06:38:16;59.92;54.13;71.30;;
41518;Laerm;27249;48.094;-1.690;2023-05-10T06:40:41;59.61;52.05;74.54;;
41518;Laerm;27249;48.094;-1.690;2023-05-10T06:43:07;59.68;54.27;66.57;;
41518;Laerm;27249;48.094;-1.690;2023-05-10T06:45:32;60.36;54.03;75.73;;
41518;Laerm;27249;48.094;-1.690;2023-05-10T06:47:57;59.33;54.06;65.83;;
41518;Laerm;27249;48.094;-1.690;2023-05-10T06:50:23;58.57;51.93;65.58;;
41518;Laerm;27249;48.094;-1.690;2023-05-10T06:52:48;59.02;53.97;64.47;;
41518;Laerm;27249;48.094;-1.690;2023-05-10T06:55:13;59.90;53.43;71.42;;
41518;Laerm;27249;48.094;-1.690;2023-05-10T06:57:38;58.87;51.96;71.87;;
41518;Laerm;27249;48.094;-1.690;2023-05-10T07:00:04;58.92;51.01;66.69;;
41518;Laerm;27249;48.094;-1.690;2023-05-10T07:02:29;57.30;51.99;66.55;;
41518;Laerm;27249;48.094;-1.690;2023-05-10T07:04:55;59.26;53.85;66.37;;
41518;Laerm;27249;48.094;-1.690;2023-05-10T07:07:20;58.53;51.40;64.55;;
41518;Laerm;27249;48.094;-1.690;2023-05-10T07:09:45;57.71;50.84;66.05;;
41518;Laerm;27249;48.094;-1.690;2023-05-10T07:12:10;58.73;51.23;68.69;;
41518;Laerm;27249;48.094;-1.690;2023-05-10T07:14:36;58.59;52.61;66.28;;
41518;Laerm;27249;48.094;-1.690;2023-05-10T07:17:01;57.45;49.35;63.22;;
41518;Laerm;27249;48.094;-1.690;2023-05-10T07:19:26;56.99;50.39;62.53;;
41518;Laerm;27249;48.094;-1.690;2023-05-10T07:21:51;58.74;51.84;67.73;;
41518;Laerm;27249;48.094;-1.690;2023-05-10T07:24:17;57.50;52.04;65.36;;
41518;Laerm;27249;48.094;-1.690;2023-05-10T07:26:42;58.96;50.65;66.64;;
41518;Laerm;27249;48.094;-1.690;2023-05-10T07:29:07;56.84;50.06;63.18;;
41518;Laerm;27249;48.094;-1.690;2023-05-10T07:31:33;57.75;51.96;64.07;;
41518;Laerm;27249;48.094;-1.690;2023-05-10T07:33:58;57.92;50.85;67.23;;
41518;Laerm;27249;48.094;-1.690;2023-05-10T07:36:23;58.31;52.12;65.81;;
41518;Laerm;27249;48.094;-1.690;2023-05-10T07:38:49;59.01;50.98;66.65;;
41518;Laerm;27249;48.094;-1.690;2023-05-10T07:41:14;57.71;51.04;65.00;;
41518;Laerm;27249;48.094;-1.690;2023-05-10T07:43:39;57.63;51.34;66.58;;
41518;Laerm;27249;48.094;-1.690;2023-05-10T07:46:05;58.41;53.39;63.89;;
41518;Laerm;27249;48.094;-1.690;2023-05-10T07:48:30;58.81;53.20;66.91;;
41518;Laerm;27249;48.094;-1.690;2023-05-10T07:50:56;56.81;51.61;65.87;;
41518;Laerm;27249;48.094;-1.690;2023-05-10T07:53:21;57.35;49.15;67.44;;
41518;Laerm;27249;48.094;-1.690;2023-05-10T07:55:50;58.30;52.40;65.25;;
41518;Laerm;27249;48.094;-1.690;2023-05-10T07:58:15;57.53;51.94;63.02;;
41518;Laerm;27249;48.094;-1.690;2023-05-10T08:00:40;57.69;50.99;71.33;;
41518;Laerm;27249;48.094;-1.690;2023-05-10T08:03:06;56.94;51.09;62.60;;
41518;Laerm;27249;48.094;-1.690;2023-05-10T08:05:31;58.28;51.71;68.51;;
41518;Laerm;27249;48.094;-1.690;2023-05-10T08:07:56;62.94;54.27;75.23;;
41518;Laerm;27249;48.094;-1.690;2023-05-10T08:10:21;64.60;50.71;72.76;;
41518;Laerm;27249;48.094;-1.690;2023-05-10T08:12:47;58.75;51.56;70.07;;
41518;Laerm;27249;48.094;-1.690;2023-05-10T08:15:12;57.30;50.56;65.44;;
41518;Laerm;27249;48.094;-1.690;2023-05-10T08:17:37;56.70;49.82;66.11;;
41518;Laerm;27249;48.094;-1.690;2023-05-10T08:20:02;58.01;53.57;65.47;;
41518;Laerm;27249;48.094;-1.690;2023-05-10T08:22:28;58.38;51.16;66.68;;
41518;Laerm;27249;48.094;-1.690;2023-05-10T08:24:53;57.63;51.24;68.22;;
41518;Laerm;27249;48.094;-1.690;2023-05-10T08:27:18;57.84;49.57;71.95;;
41518;Laerm;27249;48.094;-1.690;2023-05-10T08:29:43;59.11;50.07;81.55;;
41518;Laerm;27249;48.094;-1.690;2023-05-10T08:32:09;56.70;48.12;71.40;;
41518;Laerm;27249;48.094;-1.690;2023-05-10T08:34:34;57.29;49.62;64.88;;
41518;Laerm;27249;48.094;-1.690;2023-05-10T08:36:59;56.90;50.52;67.12;;
41518;Laerm;27249;48.094;-1.690;2023-05-10T08:39:26;57.45;52.04;64.42;;
41518;Laerm;27249;48.094;-1.690;2023-05-10T08:41:52;57.47;49.97;65.42;;
41518;Laerm;27249;48.094;-1.690;2023-05-10T08:44:19;57.39;52.02;64.61;;
41518;Laerm;27249;48.094;-1.690;2023-05-10T08:46:45;56.98;50.47;64.49;;
41518;Laerm;27249;48.094;-1.690;2023-05-10T08:49:11;58.51;50.32;71.31;;
41518;Laerm;27249;48.094;-1.690;2023-05-10T08:51:39;57.78;50.92;63.07;;
41518;Laerm;27249;48.094;-1.690;2023-05-10T08:54:05;57.86;51.53;72.53;;
41518;Laerm;27249;48.094;-1.690;2023-05-10T08:56:30;56.02;49.15;63.77;;
41518;Laerm;27249;48.094;-1.690;2023-05-10T08:58:56;57.34;51.92;70.99;;
41518;Laerm;27249;48.094;-1.690;2023-05-10T09:01:21;57.24;51.01;70.80;;
41518;Laerm;27249;48.094;-1.690;2023-05-10T09:03:46;57.46;51.42;65.42;;
41518;Laerm;27249;48.094;-1.690;2023-05-10T09:06:12;56.91;48.49;63.21;;
41518;Laerm;27249;48.094;-1.690;2023-05-10T09:08:38;58.10;52.44;67.77;;
41518;Laerm;27249;48.094;-1.690;2023-05-10T09:11:05;56.39;50.47;63.26;;
41518;Laerm;27249;48.094;-1.690;2023-05-10T09:13:30;57.05;50.37;65.01;;
41518;Laerm;27249;48.094;-1.690;2023-05-10T09:15:56;57.52;48.46;65.14;;
41518;Laerm;27249;48.094;-1.690;2023-05-10T09:18:21;58.10;52.12;64.07;;
41518;Laerm;27249;48.094;-1.690;2023-05-10T09:20:46;59.27;50.73;71.15;;
41518;Laerm;27249;48.094;-1.690;2023-05-10T09:23:12;56.63;50.37;63.86;;
41518;Laerm;27249;48.094;-1.690;2023-05-10T09:25:37;57.24;51.76;63.47;;
41518;Laerm;27249;48.094;-1.690;2023-05-10T09:28:05;57.59;50.23;63.44;;
41518;Laerm;27249;48.094;-1.690;2023-05-10T09:30:31;58.57;50.18;65.57;;
41518;Laerm;27249;48.094;-1.690;2023-05-10T09:32:57;61.18;57.03;67.92;;
41518;Laerm;27249;48.094;-1.690;2023-05-10T09:35:27;61.35;50.95;68.26;;
41518;Laerm;27249;48.094;-1.690;2023-05-10T09:37:54;60.31;53.86;66.98;;
41518;Laerm;27249;48.094;-1.690;2023-05-10T09:40:21;60.78;55.02;67.43;;
41518;Laerm;27249;48.094;-1.690;2023-05-10T09:42:51;60.81;53.48;67.67;;
41518;Laerm;27249;48.094;-1.690;2023-05-10T09:45:16;60.55;52.93;69.01;;
41518;Laerm;27249;48.094;-1.690;2023-05-10T09:47:41;59.96;53.22;67.60;;
41518;Laerm;27249;48.094;-1.690;2023-05-10T09:50:07;60.45;52.38;66.50;;
41518;Laerm;27249;48.094;-1.690;2023-05-10T09:52:51;61.46;56.39;67.28;;
41518;Laerm;27249;48.094;-1.690;2023-05-10T09:55:18;61.02;53.09;68.98;;
41518;Laerm;27249;48.094;-1.690;2023-05-10T09:57:43;60.12;52.55;65.87;;
41518;Laerm;27249;48.094;-1.690;2023-05-10T10:00:09;61.15;54.57;68.37;;
41518;Laerm;27249;48.094;-1.690;2023-05-10T10:02:37;61.60;56.38;69.16;;
41518;Laerm;27249;48.094;-1.690;2023-05-10T10:05:03;60.61;50.80;68.27;;
41518;Laerm;27249;48.094;-1.690;2023-05-10T10:07:29;60.36;55.22;66.83;;
41518;Laerm;27249;48.094;-1.690;2023-05-10T10:09:54;60.33;54.65;65.73;;
41518;Laerm;27249;48.094;-1.690;2023-05-10T10:12:20;62.15;52.69;73.68;;
41518;Laerm;27249;48.094;-1.690;2023-05-10T10:14:48;60.57;55.40;66.68;;
41518;Laerm;27249;48.094;-1.690;2023-05-10T10:17:15;59.46;50.44;65.50;;
41518;Laerm;27249;48.094;-1.690;2023-05-10T10:19:40;60.25;55.02;65.80;;
41518;Laerm;27249;48.094;-1.690;2023-05-10T10:22:06;59.85;53.80;68.65;;
41518;Laerm;27249;48.094;-1.690;2023-05-10T10:24:31;60.87;51.81;68.03;;
41518;Laerm;27249;48.094;-1.690;2023-05-10T10:27:04;59.05;54.35;64.98;;
41518;Laerm;27249;48.094;-1.690;2023-05-10T10:29:36;58.63;51.88;72.97;;
41518;Laerm;27249;48.094;-1.690;2023-05-10T10:34:32;64.22;56.13;72.08;;
41518;Laerm;27249;48.094;-1.690;2023-05-10T10:36:58;68.27;57.89;76.56;;
41518;Laerm;27249;48.094;-1.690;2023-05-10T10:39:28;61.87;51.58;69.33;;
41518;Laerm;27249;48.094;-1.690;2023-05-10T10:41:54;62.79;56.17;76.65;;
41518;Laerm;27249;48.094;-1.690;2023-05-10T10:49:22;61.04;55.09;66.94;;
41518;Laerm;27249;48.094;-1.690;2023-05-10T10:54:32;60.12;52.75;67.38;;
41518;Laerm;27249;48.094;-1.690;2023-05-10T10:59:54;60.57;53.57;66.89;;
41518;Laerm;27249;48.094;-1.690;2023-05-10T11:02:43;58.30;51.55;65.61;;
41518;Laerm;27249;48.094;-1.690;2023-05-10T11:07:58;58.01;48.16;66.29;;
41518;Laerm;27249;48.094;-1.690;2023-05-10T11:10:24;58.80;50.91;65.41;;
41518;Laerm;27249;48.094;-1.690;2023-05-10T11:12:58;58.81;52.34;64.85;;
41518;Laerm;27249;48.094;-1.690;2023-05-10T11:15:32;57.83;52.31;65.09;;
41518;Laerm;27249;48.094;-1.690;2023-05-10T11:17:58;58.81;52.92;66.53;;
41518;Laerm;27249;48.094;-1.690;2023-05-10T11:20:23;59.48;52.64;65.73;;
41518;Laerm;27249;48.094;-1.690;2023-05-10T11:22:57;59.27;51.76;68.91;;
41518;Laerm;27249;48.094;-1.690;2023-05-10T11:25:26;66.70;57.04;77.02;;
41518;Laerm;27249;48.094;-1.690;2023-05-10T11:27:52;63.91;58.55;75.34;;
41518;Laerm;27249;48.094;-1.690;2023-05-10T11:30:17;64.74;58.82;75.03;;
41518;Laerm;27249;48.094;-1.690;2023-05-10T11:32:43;73.88;59.85;80.70;;
41518;Laerm;27249;48.094;-1.690;2023-05-10T11:35:09;73.11;61.86;83.55;;
41518;Laerm;27249;48.094;-1.690;2023-05-10T11:37:34;64.18;58.61;69.48;;
41518;Laerm;27249;48.094;-1.690;2023-05-10T11:40:00;62.87;55.96;69.17;;
41518;Laerm;27249;48.094;-1.690;2023-05-10T11:42:25;61.87;54.38;67.85;;
41518;Laerm;27249;48.094;-1.690;2023-05-10T11:44:50;61.49;55.59;67.86;;
41518;Laerm;27249;48.094;-1.690;2023-05-10T11:47:17;61.89;55.76;69.87;;
41518;Laerm;27249;48.094;-1.690;2023-05-10T11:49:46;60.43;53.16;68.14;;
41518;Laerm;27249;48.094;-1.690;2023-05-10T11:52:11;60.91;54.88;68.13;;
41518;Laerm;27249;48.094;-1.690;2023-05-10T11:54:37;63.60;56.19;79.60;;
41518;Laerm;27249;48.094;-1.690;2023-05-10T11:57:02;60.25;53.12;71.45;;
41518;Laerm;27249;48.094;-1.690;2023-05-10T11:59:27;60.81;53.92;72.27;;
41518;Laerm;27249;48.094;-1.690;2023-05-10T12:01:53;58.64;52.29;66.28;;
41518;Laerm;27249;48.094;-1.690;2023-05-10T12:04:18;59.17;49.79;66.97;;
41518;Laerm;27249;48.094;-1.690;2023-05-10T12:06:43;60.10;54.27;68.34;;
41518;Laerm;27249;48.094;-1.690;2023-05-10T12:09:10;62.20;56.34;69.94;;
41518;Laerm;27249;48.094;-1.690;2023-05-10T12:11:38;60.01;54.26;67.01;;
41518;Laerm;27249;48.094;-1.690;2023-05-10T12:14:05;62.01;55.23;68.54;;
41518;Laerm;27249;48.094;-1.690;2023-05-10T12:16:30;62.28;56.91;69.17;;
41518;Laerm;27249;48.094;-1.690;2023-05-10T12:18:56;64.34;57.83;70.89;;
41518;Laerm;27249;48.094;-1.690;2023-05-10T12:21:22;65.96;59.79;72.18;;
41518;Laerm;27249;48.094;-1.690;2023-05-10T12:23:52;63.96;58.56;69.68;;
41518;Laerm;27249;48.094;-1.690;2023-05-10T12:26:17;67.25;62.02;71.87;;
41518;Laerm;27249;48.094;-1.690;2023-05-10T12:28:43;68.49;59.70;74.43;;
41518;Laerm;27249;48.094;-1.690;2023-05-10T12:31:08;68.35;63.65;74.47;;
41518;Laerm;27249;48.094;-1.690;2023-05-10T12:33:37;66.98;59.33;73.96;;
41518;Laerm;27249;48.094;-1.690;2023-05-10T12:36:09;63.84;58.44;70.09;;
41518;Laerm;27249;48.094;-1.690;2023-05-10T12:38:36;62.46;56.05;68.46;;
41518;Laerm;27249;48.094;-1.690;2023-05-10T12:41:03;61.51;52.65;72.27;;
41518;Laerm;27249;48.094;-1.690;2023-05-10T12:43:29;60.63;52.95;68.04;;
41518;Laerm;27249;48.094;-1.690;2023-05-10T12:45:55;60.35;52.42;68.21;;
41518;Laerm;27249;48.094;-1.690;2023-05-10T12:48:20;60.26;53.70;66.86;;
41518;Laerm;27249;48.094;-1.690;2023-05-10T12:50:46;59.73;51.56;66.87;;
41518;Laerm;27249;48.094;-1.690;2023-05-10T12:53:13;60.72;53.01;68.05;;
41518;Laerm;27249;48.094;-1.690;2023-05-10T12:55:38;59.25;52.40;67.04;;
41518;Laerm;27249;48.094;-1.690;2023-05-10T12:58:04;61.22;52.89;66.17;;
41518;Laerm;27249;48.094;-1.690;2023-05-10T13:00:29;60.12;52.41;71.61;;
41518;Laerm;27249;48.094;-1.690;2023-05-10T13:02:54;60.39;52.48;66.06;;
41518;Laerm;27249;48.094;-1.690;2023-05-10T13:05:20;60.00;52.82;66.76;;
41518;Laerm;27249;48.094;-1.690;2023-05-10T13:07:46;59.52;52.96;65.75;;
41518;Laerm;27249;48.094;-1.690;2023-05-10T13:10:11;58.95;53.26;64.96;;
41518;Laerm;27249;48.094;-1.690;2023-05-10T13:12:36;59.01;49.73;65.54;;
41518;Laerm;27249;48.094;-1.690;2023-05-10T13:15:02;59.60;52.44;69.82;;
41518;Laerm;27249;48.094;-1.690;2023-05-10T13:17:28;58.52;52.44;65.09;;
41518;Laerm;27249;48.094;-1.690;2023-05-10T13:19:53;59.07;52.84;74.38;;
41518;Laerm;27249;48.094;-1.690;2023-05-10T13:22:19;60.17;54.30;65.80;;
41518;Laerm;27249;48.094;-1.690;2023-05-10T13:24:44;59.07;51.88;63.92;;
41518;Laerm;27249;48.094;-1.690;2023-05-10T13:27:10;58.10;48.29;64.53;;
41518;Laerm;27249;48.094;-1.690;2023-05-10T13:29:35;59.58;52.04;66.34;;
41518;Laerm;27249;48.094;-1.690;2023-05-10T13:32:00;58.64;50.45;63.74;;
41518;Laerm;27249;48.094;-1.690;2023-05-10T13:34:26;58.83;51.59;69.51;;
41518;Laerm;27249;48.094;-1.690;2023-05-10T13:36:51;58.74;52.59;68.81;;
41518;Laerm;27249;48.094;-1.690;2023-05-10T13:39:17;57.91;47.86;64.82;;
41518;Laerm;27249;48.094;-1.690;2023-05-10T13:41:43;57.92;50.78;64.37;;
41518;Laerm;27249;48.094;-1.690;2023-05-10T13:44:08;58.54;51.36;63.83;;
41518;Laerm;27249;48.094;-1.690;2023-05-10T13:46:33;60.76;52.25;73.42;;
41518;Laerm;27249;48.094;-1.690;2023-05-10T13:48:58;64.39;57.65;74.09;;
41518;Laerm;27249;48.094;-1.690;2023-05-10T13:51:24;66.72;58.74;71.79;;
41518;Laerm;27249;48.094;-1.690;2023-05-10T13:53:49;67.15;61.15;74.90;;
41518;Laerm;27249;48.094;-1.690;2023-05-10T13:56:14;68.61;61.62;77.36;;
41518;Laerm;27249;48.094;-1.690;2023-05-10T13:58:40;63.28;55.65;69.29;;
41518;Laerm;27249;48.094;-1.690;2023-05-10T14:01:05;60.82;52.32;67.81;;
41518;Laerm;27249;48.094;-1.690;2023-05-10T14:03:30;61.34;54.40;68.93;;
41518;Laerm;27249;48.094;-1.690;2023-05-10T14:05:55;60.50;54.84;67.85;;